Time;durP1;ratioP1;P1;durP2;ratioP2;P2;SDS_P1;SDS_P2;PMS_P1;PMS_P2;Temp;Humidity;BMP_temperature;BMP_pressure;BME280_temperature;BME280_humidity;BME280_pressure;Samples;Min_cycle;Max_cycle;Signal;HPM_P1;HPM_P2
2021/12/13 00:00:52;;;;;;;5.40;5.00;;;;;;;;;;5034144;28;20639;-79
2021/12/13 00:03:24;;;;;;;6.33;5.60;;;;;;;;;;5055224;28;21291;-79
2021/12/13 00:05:52;;;;;;;6.40;5.80;;;;;;;;;;5046662;28;20471;-80
2021/12/13 00:08:21;;;;;;;6.00;5.40;;;;;;;;;;5035172;28;20435;-81
2021/12/13 00:10:51;;;;;;;5.90;5.40;;;;;;;;;;5034694;28;20437;-79
2021/12/13 00:13:21;;;;;;;7.13;5.90;;;;;;;;;;5034598;28;20830;-79
2021/12/13 00:15:52;;;;;;;6.07;5.47;;;;;;;;;;5034785;28;20562;-80
2021/12/13 00:18:22;;;;;;;7.37;4.87;;;;;;;;;;5038106;28;20443;-79
2021/12/13 00:20:51;;;;;;;6.37;5.63;;;;;;;;;;5055803;28;20468;-79
2021/12/13 00:23:21;;;;;;;6.13;5.53;;;;;;;;;;5056044;28;20441;-80
2021/12/13 00:25:50;;;;;;;6.90;5.93;;;;;;;;;;5055810;28;20469;-79
2021/12/13 00:28:19;;;;;;;6.53;5.67;;;;;;;;;;5053837;28;20430;-78
2021/12/13 00:30:54;;;;;;;6.37;5.87;;;;;;;;;;5054424;28;20444;-80
2021/12/13 00:33:28;;;;;;;10.07;6.10;;;;;;;;;;5058976;28;20473;-81
2021/12/13 00:35:57;;;;;;;5.80;5.30;;;;;;;;;;5060191;28;20478;-79
2021/12/13 00:38:27;;;;;;;7.73;5.30;;;;;;;;;;5058980;28;20278;-80
2021/12/13 00:40:59;;;;;;;7.47;5.97;;;;;;;;;;5055336;28;20433;-79
2021/12/13 00:43:28;;;;;;;6.33;5.60;;;;;;;;;;5054789;28;20422;-78
2021/12/13 00:45:59;;;;;;;5.90;5.40;;;;;;;;;;5056045;28;20473;-81
2021/12/13 00:48:28;;;;;;;5.90;5.23;;;;;;;;;;5056681;28;20426;-79
2021/12/13 00:51:00;;;;;;;6.90;5.72;;;;;;;;;;5057144;28;20522;-80
2021/12/13 00:53:28;;;;;;;6.10;5.60;;;;;;;;;;5056490;28;20203;-79
2021/12/13 00:55:56;;;;;;;6.17;5.57;;;;;;;;;;5058953;28;20462;-79
2021/12/13 00:58:24;;;;;;;6.97;5.33;;;;;;;;;;5063541;28;20434;-79
2021/12/13 01:00:53;;;;;;;7.50;5.63;;;;;;;;;;5065520;28;20452;-80
2021/12/13 01:03:24;;;;;;;6.63;6.00;;;;;;;;;;5058045;28;20433;-81
2021/12/13 01:06:11;;;;;;;9.80;5.90;;;;;;;;;;5063808;28;20477;-82
2021/12/13 01:08:59;;;;;;;6.37;5.77;;;;;;;;;;5071376;28;20436;-79
2021/12/13 01:11:36;;;;;;;6.90;6.20;;;;;;;;;;5041580;28;20441;-82
2021/12/13 01:14:21;;;;;;;5.63;5.03;;;;;;;;;;5060860;28;20477;-81
2021/12/13 01:16:56;;;;;;;6.50;5.83;;;;;;;;;;5060219;28;20461;-82
2021/12/13 01:19:31;;;;;;;8.67;6.33;;;;;;;;;;5069601;28;20492;-82
2021/12/13 01:22:20;;;;;;;7.18;6.57;;;;;;;;;;5075093;28;20437;-82
2021/12/13 01:25:15;;;;;;;7.07;6.38;;;;;;;;;;5076180;28;20225;-79
2021/12/13 01:27:42;;;;;;;7.20;6.13;;;;;;;;;;5076116;28;20219;-81
2021/12/13 01:30:10;;;;;;;7.28;6.05;;;;;;;;;;5076145;28;20426;-80
2021/12/13 01:32:38;;;;;;;9.00;6.18;;;;;;;;;;5076161;28;20183;-81
2021/12/13 01:35:09;;;;;;;8.10;7.30;;;;;;;;;;5075005;28;20221;-81
2021/12/13 01:37:36;;;;;;;7.80;7.10;;;;;;;;;;5065428;28;20446;-81
2021/12/13 01:40:06;;;;;;;9.30;6.17;;;;;;;;;;5061967;28;20450;-80
2021/12/13 01:42:34;;;;;;;8.53;7.30;;;;;;;;;;5060403;28;20415;-81
2021/12/13 01:45:02;;;;;;;8.00;7.20;;;;;;;;;;5055690;28;20997;-81
2021/12/13 01:47:30;;;;;;;8.30;7.50;;;;;;;;;;5052244;28;21189;-78
2021/12/13 01:50:08;;;;;;;8.10;7.40;;;;;;;;;;5052541;28;20936;-79
2021/12/13 01:52:37;;;;;;;8.53;7.10;;;;;;;;;;5052157;28;20430;-79
2021/12/13 01:55:09;;;;;;;8.57;7.33;;;;;;;;;;5055381;28;21000;-80
2021/12/13 01:57:47;;;;;;;9.17;8.03;;;;;;;;;;5055682;28;20414;-79
2021/12/13 02:00:18;;;;;;;11.73;8.30;;;;;;;;;;5053301;28;20445;-80
2021/12/13 02:02:48;;;;;;;7.10;6.50;;;;;;;;;;5057273;28;20557;-81
2021/12/13 02:05:17;;;;;;;8.35;7.40;;;;;;;;;;5059753;28;20468;-81
2021/12/13 02:07:48;;;;;;;8.03;7.13;;;;;;;;;;5058786;28;20202;-81
2021/12/13 02:10:18;;;;;;;8.00;7.20;;;;;;;;;;5061219;28;20434;-80
2021/12/13 02:12:46;;;;;;;10.30;8.27;;;;;;;;;;5059869;28;20449;-81
2021/12/13 02:17:59;;;;;;;11.90;8.13;;;;;;;;;;5061814;28;20416;-80
2021/12/13 02:20:30;;;;;;;7.87;7.17;;;;;;;;;;5060026;28;20426;-80
2021/12/13 02:22:59;;;;;;;10.20;8.00;;;;;;;;;;5056611;28;20816;-81
2021/12/13 02:25:28;;;;;;;10.83;9.73;;;;;;;;;;5056927;28;20465;-80
2021/12/13 02:27:59;;;;;;;21.77;15.77;;;;;;;;;;5058153;28;20522;-81
2021/12/13 02:30:29;;;;;;;8.90;8.00;;;;;;;;;;5057134;28;20452;-81
2021/12/13 02:32:57;;;;;;;9.63;8.50;;;;;;;;;;5057245;28;20445;-81
2021/12/13 02:35:27;;;;;;;10.48;7.50;;;;;;;;;;5059763;28;20483;-80
2021/12/13 02:37:54;;;;;;;11.07;8.10;;;;;;;;;;5061355;28;20442;-81
2021/12/13 02:40:23;;;;;;;11.50;8.20;;;;;;;;;;5061148;28;20444;-80
2021/12/13 02:42:50;;;;;;;11.37;8.00;;;;;;;;;;5060661;28;20429;-81
2021/12/13 02:45:20;;;;;;;11.20;7.63;;;;;;;;;;5060065;28;20495;-80
2021/12/13 02:47:49;;;;;;;8.87;8.03;;;;;;;;;;5061130;28;20490;-82
2021/12/13 02:50:19;;;;;;;8.93;8.03;;;;;;;;;;5059842;28;20438;-80
2021/12/13 02:52:47;;;;;;;9.60;8.60;;;;;;;;;;5058979;28;20445;-81
2021/12/13 02:55:15;;;;;;;10.43;8.03;;;;;;;;;;5059607;28;20492;-83
2021/12/13 02:57:45;;;;;;;13.30;9.20;;;;;;;;;;5061055;28;20464;-81
2021/12/13 03:00:15;;;;;;;8.90;7.80;;;;;;;;;;5059642;28;20507;-81
2021/12/13 03:02:44;;;;;;;9.70;8.30;;;;;;;;;;5060354;28;20447;-82
2021/12/13 03:05:14;;;;;;;14.10;9.20;;;;;;;;;;5057300;28;20465;-81
2021/12/13 03:07:43;;;;;;;9.70;8.70;;;;;;;;;;5061629;28;20195;-81
2021/12/13 03:10:12;;;;;;;10.47;8.93;;;;;;;;;;5060671;28;20426;-81
2021/12/13 03:12:39;;;;;;;11.50;8.38;;;;;;;;;;5058265;28;20449;-82
2021/12/13 03:15:10;;;;;;;11.77;8.65;;;;;;;;;;5059291;28;20476;-81
2021/12/13 03:17:39;;;;;;;11.07;8.73;;;;;;;;;;5060117;28;20200;-82
2021/12/13 03:20:22;;;;;;;11.40;9.00;;;;;;;;;;5059259;28;20545;-82
2021/12/13 03:23:04;;;;;;;10.37;9.13;;;;;;;;;;5059632;28;20877;-82
2021/12/13 03:25:35;;;;;;;14.93;9.90;;;;;;;;;;5059505;28;20461;-81
2021/12/13 03:28:15;;;;;;;12.47;10.67;;;;;;;;;;5060752;28;20446;-80
2021/12/13 03:30:45;;;;;;;12.80;10.03;;;;;;;;;;5055614;28;20957;-83
2021/12/13 03:33:13;;;;;;;13.13;10.27;;;;;;;;;;5060801;28;20905;-81
2021/12/13 03:35:42;;;;;;;12.15;9.55;;;;;;;;;;5059145;28;20481;-82
2021/12/13 03:38:11;;;;;;;10.67;9.17;;;;;;;;;;5061030;28;20569;-80
2021/12/13 03:40:39;;;;;;;11.90;9.80;;;;;;;;;;5061683;28;20426;-81
2021/12/13 03:43:08;;;;;;;11.07;9.87;;;;;;;;;;5061015;28;20446;-82
2021/12/13 03:45:37;;;;;;;8.87;7.97;;;;;;;;;;5061436;28;20998;-82
2021/12/13 03:48:06;;;;;;;13.17;9.23;;;;;;;;;;5060490;28;20472;-82
2021/12/13 03:50:36;;;;;;;12.07;10.10;;;;;;;;;;5059603;28;20446;-81
2021/12/13 03:53:11;;;;;;;12.30;9.07;;;;;;;;;;5061528;28;20585;-83
2021/12/13 03:55:39;;;;;;;9.97;8.83;;;;;;;;;;5059867;28;20828;-81
2021/12/13 03:58:08;;;;;;;13.50;10.07;;;;;;;;;;5064908;28;20442;-82
2021/12/13 04:00:37;;;;;;;13.90;10.23;;;;;;;;;;5065371;28;20428;-82
2021/12/13 04:03:09;;;;;;;10.82;9.38;;;;;;;;;;5064126;28;20445;-82
2021/12/13 04:05:37;;;;;;;12.63;9.83;;;;;;;;;;5065629;28;20234;-83
2021/12/13 04:08:05;;;;;;;11.83;9.90;;;;;;;;;;5058951;28;20456;-81
2021/12/13 04:10:35;;;;;;;14.70;9.93;;;;;;;;;;5063728;28;20433;-80
2021/12/13 04:13:09;;;;;;;14.40;9.77;;;;;;;;;;5064041;28;20437;-80
2021/12/13 04:15:50;;;;;;;11.10;9.10;;;;;;;;;;5063136;28;20489;-83
2021/12/13 04:18:29;;;;;;;11.50;10.30;;;;;;;;;;5060436;28;20952;-81
2021/12/13 04:20:59;;;;;;;11.50;9.93;;;;;;;;;;5060165;28;20453;-82
2021/12/13 04:23:26;;;;;;;13.03;9.80;;;;;;;;;;5059425;28;20446;-82
2021/12/13 04:25:56;;;;;;;11.77;10.53;;;;;;;;;;5058237;28;20461;-82
2021/12/13 04:28:25;;;;;;;13.98;10.10;;;;;;;;;;5059100;28;20463;-81
2021/12/13 04:30:55;;;;;;;13.50;10.80;;;;;;;;;;5060083;28;20199;-81
2021/12/13 04:33:26;;;;;;;12.83;10.60;;;;;;;;;;5063082;28;20631;-83
2021/12/13 04:35:54;;;;;;;14.48;10.43;;;;;;;;;;5069464;28;20477;-81
2021/12/13 04:38:25;;;;;;;13.57;10.23;;;;;;;;;;5069900;28;20192;-81
2021/12/13 04:40:52;;;;;;;11.80;10.50;;;;;;;;;;5061780;28;20812;-80
2021/12/13 04:43:20;;;;;;;13.30;11.13;;;;;;;;;;5072015;28;20430;-81
2021/12/13 04:45:48;;;;;;;12.60;11.30;;;;;;;;;;5073517;28;20545;-80
2021/12/13 04:48:17;;;;;;;12.75;10.32;;;;;;;;;;5062173;28;20450;-81
2021/12/13 04:50:49;;;;;;;12.20;10.77;;;;;;;;;;5062481;28;20213;-80
2021/12/13 04:53:18;;;;;;;11.10;9.87;;;;;;;;;;5075376;28;20433;-81
2021/12/13 04:55:45;;;;;;;12.55;10.05;;;;;;;;;;5073390;28;20501;-81
2021/12/13 04:58:14;;;;;;;12.00;10.70;;;;;;;;;;5059150;28;20194;-80
2021/12/13 05:00:43;;;;;;;12.37;10.60;;;;;;;;;;5056958;28;20442;-82
2021/12/13 05:03:11;;;;;;;12.80;10.53;;;;;;;;;;5055155;28;20426;-80
2021/12/13 05:05:39;;;;;;;10.90;9.75;;;;;;;;;;5055653;28;20488;-81
2021/12/13 05:08:10;;;;;;;16.00;11.13;;;;;;;;;;5067599;28;20200;-81
2021/12/13 05:10:37;;;;;;;13.20;10.55;;;;;;;;;;5063441;28;20452;-80
2021/12/13 05:13:09;;;;;;;11.63;10.57;;;;;;;;;;5056783;28;20194;-81
2021/12/13 05:15:39;;;;;;;11.73;10.10;;;;;;;;;;5055369;28;20474;-81
2021/12/13 05:18:08;;;;;;;11.20;10.10;;;;;;;;;;5065268;28;20438;-80
2021/12/13 05:20:37;;;;;;;12.60;10.67;;;;;;;;;;5060440;28;20529;-81
2021/12/13 05:23:05;;;;;;;13.20;10.53;;;;;;;;;;5056866;28;20438;-82
2021/12/13 05:25:35;;;;;;;10.75;9.63;;;;;;;;;;5057000;28;20472;-82
2021/12/13 05:28:06;;;;;;;14.77;10.00;;;;;;;;;;5057720;28;20199;-81
2021/12/13 05:30:34;;;;;;;11.43;9.40;;;;;;;;;;5057443;28;20456;-82
2021/12/13 05:33:04;;;;;;;12.47;11.20;;;;;;;;;;5056821;28;20437;-81
2021/12/13 05:35:32;;;;;;;12.27;11.10;;;;;;;;;;5057886;28;20485;-82
2021/12/13 05:38:01;;;;;;;14.13;10.83;;;;;;;;;;5061681;28;20457;-81
2021/12/13 05:40:34;;;;;;;13.43;11.27;;;;;;;;;;5061356;28;20429;-81
2021/12/13 05:43:12;;;;;;;13.67;10.20;;;;;;;;;;5061388;28;20434;-81
2021/12/13 05:45:41;;;;;;;11.20;10.03;;;;;;;;;;5061221;28;20469;-82
2021/12/13 05:48:09;;;;;;;11.45;10.00;;;;;;;;;;5060989;28;20445;-82
2021/12/13 05:50:39;;;;;;;12.60;11.20;;;;;;;;;;5061080;28;20199;-81
2021/12/13 05:53:09;;;;;;;13.10;10.60;;;;;;;;;;5059174;28;20454;-80
2021/12/13 05:55:54;;;;;;;14.83;10.53;;;;;;;;;;5060041;28;20482;-82
2021/12/13 05:58:37;;;;;;;14.45;11.32;;;;;;;;;;5060900;28;20418;-80
2021/12/13 06:01:11;;;;;;;12.80;11.10;;;;;;;;;;5059922;28;20207;-80
2021/12/13 06:03:38;;;;;;;14.47;11.17;;;;;;;;;;5059554;28;20472;-80
2021/12/13 06:06:07;;;;;;;13.70;12.30;;;;;;;;;;5060054;28;20476;-80
2021/12/13 06:08:36;;;;;;;17.35;13.63;;;;;;;;;;5060621;28;20494;-81
2021/12/13 06:11:04;;;;;;;15.50;12.67;;;;;;;;;;5059063;28;20438;-80
2021/12/13 06:13:53;;;;;;;14.50;11.10;;;;;;;;;;5059504;28;20445;-81
2021/12/13 06:16:34;;;;;;;14.10;12.17;;;;;;;;;;5059201;28;20473;-80
2021/12/13 06:19:03;;;;;;;14.70;12.67;;;;;;;;;;5072284;28;20458;-81
2021/12/13 06:21:35;;;;;;;14.40;12.20;;;;;;;;;;5077960;28;20429;-81
2021/12/13 06:24:03;;;;;;;15.20;11.50;;;;;;;;;;5076118;28;20426;-80
2021/12/13 06:26:31;;;;;;;16.30;12.40;;;;;;;;;;5074887;28;20446;-80
2021/12/13 06:29:04;;;;;;;16.77;13.80;;;;;;;;;;5073300;28;20430;-80
2021/12/13 06:31:36;;;;;;;18.13;13.43;;;;;;;;;;5061715;28;20976;-81
2021/12/13 06:34:05;;;;;;;14.73;12.70;;;;;;;;;;5060938;28;20195;-80
2021/12/13 06:36:33;;;;;;;15.23;12.67;;;;;;;;;;5061039;28;20497;-80
2021/12/13 06:39:01;;;;;;;14.73;11.00;;;;;;;;;;5060474;28;20434;-82
2021/12/13 06:41:36;;;;;;;14.43;12.20;;;;;;;;;;5060733;28;20449;-81
2021/12/13 06:44:07;;;;;;;17.63;12.40;;;;;;;;;;5059037;28;20207;-81
2021/12/13 06:46:39;;;;;;;42.37;32.90;;;;;;;;;;5059244;28;20469;-80
2021/12/13 06:49:12;;;;;;;46.13;37.50;;;;;;;;;;5060464;28;20430;-82
2021/12/13 06:51:47;;;;;;;19.30;13.30;;;;;;;;;;5060163;28;20437;-80
2021/12/13 06:54:15;;;;;;;18.87;14.47;;;;;;;;;;5060019;28;20479;-81
2021/12/13 06:56:53;;;;;;;20.13;13.97;;;;;;;;;;5060286;28;20485;-82
2021/12/13 06:59:22;;;;;;;15.87;13.20;;;;;;;;;;5061423;28;20793;-82
2021/12/13 07:01:58;;;;;;;22.13;18.30;;;;;;;;;;5060588;28;20440;-81
2021/12/13 07:04:26;;;;;;;17.00;14.10;;;;;;;;;;5060649;28;20469;-81
2021/12/13 07:06:53;;;;;;;14.53;13.03;;;;;;;;;;5060896;28;20458;-80
2021/12/13 07:09:23;;;;;;;13.67;12.10;;;;;;;;;;5060915;28;20440;-81
2021/12/13 07:11:53;;;;;;;14.93;12.23;;;;;;;;;;5060624;28;20438;-81
2021/12/13 07:14:22;;;;;;;18.77;14.37;;;;;;;;;;5060481;28;20473;-80
2021/12/13 07:16:52;;;;;;;13.93;12.50;;;;;;;;;;5061093;28;20837;-80
2021/12/13 07:19:21;;;;;;;18.03;12.23;;;;;;;;;;5072082;28;20428;-81
2021/12/13 07:21:51;;;;;;;13.57;12.13;;;;;;;;;;5078607;28;20442;-81
2021/12/13 07:24:19;;;;;;;13.60;11.67;;;;;;;;;;5077475;28;20483;-82
2021/12/13 07:26:53;;;;;;;14.13;12.63;;;;;;;;;;5078803;28;20441;-82
2021/12/13 07:29:21;;;;;;;12.68;11.25;;;;;;;;;;5078713;28;20429;-82
2021/12/13 07:32:01;;;;;;;17.13;14.07;;;;;;;;;;5066897;28;20712;-81
2021/12/13 07:34:29;;;;;;;13.53;12.13;;;;;;;;;;5061312;28;20230;-80
2021/12/13 07:36:59;;;;;;;13.40;12.00;;;;;;;;;;5060581;28;20470;-82
2021/12/13 07:39:27;;;;;;;12.50;11.23;;;;;;;;;;5059263;28;20449;-81
2021/12/13 07:41:56;;;;;;;16.63;12.73;;;;;;;;;;5059213;28;21086;-81
2021/12/13 07:44:33;;;;;;;17.53;12.70;;;;;;;;;;5061533;28;20470;-80
2021/12/13 07:47:02;;;;;;;18.63;13.37;;;;;;;;;;5058217;28;20434;-82
2021/12/13 07:49:34;;;;;;;18.67;13.60;;;;;;;;;;5059028;28;20529;-81
2021/12/13 07:52:02;;;;;;;16.43;12.20;;;;;;;;;;5057883;28;20444;-80
2021/12/13 07:54:37;;;;;;;16.03;12.93;;;;;;;;;;5058110;28;20981;-81
2021/12/13 07:57:05;;;;;;;17.67;12.90;;;;;;;;;;5058312;28;20457;-80
2021/12/13 07:59:33;;;;;;;16.50;14.23;;;;;;;;;;5056408;28;20925;-81
2021/12/13 08:02:04;;;;;;;16.53;14.27;;;;;;;;;;5055117;28;20446;-80
2021/12/13 08:04:34;;;;;;;17.93;14.43;;;;;;;;;;5039150;28;20516;-81
2021/12/13 08:07:07;;;;;;;16.90;13.67;;;;;;;;;;5057770;28;20439;-81
2021/12/13 08:09:34;;;;;;;23.50;14.80;;;;;;;;;;5047780;28;20946;-80
2021/12/13 08:12:02;;;;;;;17.47;14.07;;;;;;;;;;5038243;28;20442;-81
2021/12/13 08:14:31;;;;;;;16.00;14.40;;;;;;;;;;5036863;28;20462;-80
2021/12/13 08:16:58;;;;;;;14.57;13.07;;;;;;;;;;5036980;28;20471;-81
2021/12/13 08:19:26;;;;;;;18.07;13.73;;;;;;;;;;5035704;28;20457;-80
2021/12/13 08:21:59;;;;;;;18.47;16.47;;;;;;;;;;5037150;28;20444;-82
2021/12/13 08:24:27;;;;;;;18.63;15.27;;;;;;;;;;5037495;28;20466;-82
2021/12/13 08:26:58;;;;;;;19.87;13.30;;;;;;;;;;5038081;28;20443;-81
2021/12/13 08:29:28;;;;;;;17.23;14.27;;;;;;;;;;5037390;28;20443;-80
2021/12/13 08:31:57;;;;;;;17.30;14.63;;;;;;;;;;5042975;28;20438;-81
2021/12/13 08:34:26;;;;;;;18.58;13.40;;;;;;;;;;5040123;28;20471;-81
2021/12/13 08:36:53;;;;;;;15.30;13.27;;;;;;;;;;5035780;28;20226;-82
2021/12/13 08:39:25;;;;;;;16.27;14.13;;;;;;;;;;5048615;28;20946;-81
2021/12/13 08:41:54;;;;;;;20.70;15.80;;;;;;;;;;5055605;28;20807;-82
2021/12/13 08:57:31;;;;;;;16.83;12.50;;;;;;;;;;5067404;28;20482;-81
2021/12/13 08:59:59;;;;;;;15.90;13.80;;;;;;;;;;5094130;28;20432;-82
2021/12/13 09:02:27;;;;;;;15.60;13.27;;;;;;;;;;5086601;28;20449;-81
2021/12/13 09:04:57;;;;;;;16.35;13.13;;;;;;;;;;5076971;28;20455;-83
2021/12/13 09:07:25;;;;;;;18.13;14.33;;;;;;;;;;5076155;28;20199;-82
2021/12/13 09:09:53;;;;;;;17.37;14.13;;;;;;;;;;5075898;28;20430;-80
2021/12/13 09:12:29;;;;;;;19.93;15.77;;;;;;;;;;5075699;28;20434;-81
2021/12/13 09:14:57;;;;;;;17.47;14.13;;;;;;;;;;5075741;28;20456;-81
2021/12/13 09:17:31;;;;;;;17.83;14.77;;;;;;;;;;5076637;28;20493;-81
2021/12/13 09:20:00;;;;;;;17.23;14.40;;;;;;;;;;5076601;28;20454;-81
2021/12/13 09:22:29;;;;;;;16.80;14.13;;;;;;;;;;5069147;28;20453;-81
2021/12/13 09:24:57;;;;;;;18.50;13.67;;;;;;;;;;5055918;28;20988;-81
2021/12/13 09:27:30;;;;;;;17.47;15.00;;;;;;;;;;5055803;28;20962;-81
2021/12/13 09:30:02;;;;;;;16.03;13.77;;;;;;;;;;5055780;28;20433;-81
2021/12/13 09:32:34;;;;;;;15.50;12.77;;;;;;;;;;5056250;28;20513;-80
2021/12/13 09:35:17;;;;;;;15.00;13.40;;;;;;;;;;5055381;28;20230;-81
2021/12/13 09:37:45;;;;;;;17.38;13.40;;;;;;;;;;5055757;28;20421;-81
2021/12/13 09:40:15;;;;;;;17.63;12.85;;;;;;;;;;5055974;28;20196;-81
2021/12/13 09:42:47;;;;;;;17.17;14.33;;;;;;;;;;5054332;28;20195;-80
2021/12/13 09:45:21;;;;;;;16.47;12.50;;;;;;;;;;5054946;28;20455;-81
2021/12/13 09:47:48;;;;;;;14.93;13.43;;;;;;;;;;5056292;28;20442;-81
2021/12/13 09:50:24;;;;;;;17.40;12.77;;;;;;;;;;5056312;28;20203;-80
2021/12/13 09:52:53;;;;;;;16.67;12.93;;;;;;;;;;5056995;28;20194;-81
2021/12/13 09:55:22;;;;;;;15.47;13.67;;;;;;;;;;5063872;28;20472;-79
2021/12/13 09:57:51;;;;;;;15.70;12.00;;;;;;;;;;5074610;28;20464;-80
2021/12/13 10:00:22;;;;;;;17.17;11.43;;;;;;;;;;5074178;28;20451;-79
2021/12/13 10:02:50;;;;;;;16.70;12.60;;;;;;;;;;5094826;28;20554;-82
2021/12/13 10:05:21;;;;;;;13.83;11.37;;;;;;;;;;5090298;28;20477;-80
2021/12/13 10:07:51;;;;;;;18.97;14.10;;;;;;;;;;5056909;28;20429;-80
2021/12/13 10:10:21;;;;;;;15.60;13.95;;;;;;;;;;5056442;28;20439;-79
2021/12/13 10:12:50;;;;;;;19.47;16.00;;;;;;;;;;5057059;28;20213;-79
2021/12/13 10:15:19;;;;;;;23.13;14.03;;;;;;;;;;5057542;28;20456;-80
2021/12/13 10:17:49;;;;;;;20.13;14.30;;;;;;;;;;5056089;28;20439;-80
2021/12/13 10:20:18;;;;;;;22.80;14.43;;;;;;;;;;5057748;28;20467;-80
2021/12/13 10:22:45;;;;;;;18.93;14.57;;;;;;;;;;5059635;28;21047;-81
2021/12/13 10:25:17;;;;;;;15.87;14.10;;;;;;;;;;5061261;28;20555;-81
2021/12/13 10:27:44;;;;;;;19.17;15.60;;;;;;;;;;5064009;28;20429;-80
2021/12/13 10:30:14;;;;;;;20.00;15.20;;;;;;;;;;5063545;28;20439;-80
2021/12/13 10:32:42;;;;;;;18.07;14.77;;;;;;;;;;5061908;28;20438;-80
2021/12/13 10:35:14;;;;;;;20.00;15.70;;;;;;;;;;5062232;28;20492;-79
2021/12/13 10:37:42;;;;;;;21.70;15.80;;;;;;;;;;5060197;28;20564;-80
2021/12/13 10:40:11;;;;;;;24.03;16.83;;;;;;;;;;5058030;28;20958;-81
2021/12/13 10:42:41;;;;;;;19.50;15.32;;;;;;;;;;5058455;28;20438;-80
2021/12/13 10:45:09;;;;;;;22.45;16.88;;;;;;;;;;5057806;28;20239;-81
2021/12/13 10:47:38;;;;;;;20.03;16.83;;;;;;;;;;5059043;28;20672;-81
2021/12/13 10:50:07;;;;;;;21.10;15.57;;;;;;;;;;5058640;28;20445;-81
2021/12/13 10:52:38;;;;;;;19.13;14.70;;;;;;;;;;5058141;28;20479;-81
2021/12/13 10:55:08;;;;;;;19.80;14.43;;;;;;;;;;5058566;28;20472;-81
2021/12/13 10:57:36;;;;;;;26.63;16.87;;;;;;;;;;5060929;28;20654;-81
2021/12/13 11:00:06;;;;;;;18.40;15.33;;;;;;;;;;5061534;28;20440;-81
2021/12/13 11:02:35;;;;;;;24.50;16.43;;;;;;;;;;5048078;28;20449;-81
2021/12/13 11:05:04;;;;;;;19.87;13.73;;;;;;;;;;5038625;28;20984;-81
2021/12/13 11:07:31;;;;;;;20.63;15.50;;;;;;;;;;5038073;28;20449;-81
2021/12/13 11:10:01;;;;;;;18.77;15.10;;;;;;;;;;5035881;28;20442;-79
2021/12/13 11:12:31;;;;;;;17.10;14.40;;;;;;;;;;5035500;28;20450;-80
2021/12/13 11:15:01;;;;;;;20.83;15.73;;;;;;;;;;5035578;28;20472;-80
2021/12/13 11:17:30;;;;;;;19.53;14.67;;;;;;;;;;5047731;28;20467;-81
2021/12/13 11:20:00;;;;;;;21.93;15.50;;;;;;;;;;5059291;28;20442;-81
2021/12/13 11:22:29;;;;;;;19.17;15.57;;;;;;;;;;5056527;28;20447;-81
2021/12/13 11:24:57;;;;;;;19.65;13.98;;;;;;;;;;5049805;28;20213;-80
2021/12/13 11:27:30;;;;;;;21.90;15.57;;;;;;;;;;5058710;28;20218;-81
2021/12/13 11:29:58;;;;;;;21.67;15.17;;;;;;;;;;5058646;28;20473;-81
2021/12/13 11:32:40;;;;;;;20.03;13.70;;;;;;;;;;5058474;28;20430;-81
2021/12/13 11:35:25;;;;;;;20.20;14.98;;;;;;;;;;5057746;28;20471;-81
2021/12/13 11:38:09;;;;;;;20.38;15.35;;;;;;;;;;5045434;28;20219;-81
2021/12/13 11:40:46;;;;;;;17.30;13.73;;;;;;;;;;5044091;28;20215;-81
2021/12/13 11:43:21;;;;;;;19.40;14.57;;;;;;;;;;5041605;28;20456;-80
2021/12/13 11:46:06;;;;;;;20.13;14.30;;;;;;;;;;5041477;28;20689;-81
2021/12/13 11:48:46;;;;;;;20.27;14.80;;;;;;;;;;5005220;28;20493;-82
2021/12/13 11:51:32;;;;;;;18.63;14.33;;;;;;;;;;5040803;28;20456;-80
2021/12/13 11:54:21;;;;;;;20.23;13.27;;;;;;;;;;5046216;28;20463;-80
2021/12/13 11:57:13;;;;;;;21.43;13.23;;;;;;;;;;5046701;28;20483;-79
2021/12/13 12:00:02;;;;;;;19.30;14.40;;;;;;;;;;5037011;28;20448;-80
2021/12/13 12:02:35;;;;;;;17.77;13.70;;;;;;;;;;5047081;28;20449;-81
2021/12/13 12:05:17;;;;;;;19.97;15.30;;;;;;;;;;5056588;28;20876;-81
2021/12/13 12:08:07;;;;;;;21.53;14.67;;;;;;;;;;5056710;28;20448;-80
2021/12/13 12:10:50;;;;;;;16.17;14.40;;;;;;;;;;5059439;28;20449;-82
2021/12/13 12:13:26;;;;;;;16.77;13.70;;;;;;;;;;5056856;28;20454;-81
2021/12/13 12:16:00;;;;;;;19.00;14.27;;;;;;;;;;5058977;28;20472;-81
2021/12/13 12:18:28;;;;;;;16.93;13.77;;;;;;;;;;5059121;28;20432;-81
2021/12/13 12:21:10;;;;;;;17.73;12.80;;;;;;;;;;5057779;28;20864;-80
2021/12/13 12:23:38;;;;;;;14.83;13.27;;;;;;;;;;5057211;28;20455;-81
2021/12/13 12:26:05;;;;;;;14.37;12.83;;;;;;;;;;5063345;28;20555;-79
2021/12/13 12:28:58;;;;;;;15.43;12.77;;;;;;;;;;5073882;28;20772;-80
2021/12/13 12:31:29;;;;;;;13.15;11.75;;;;;;;;;;5070372;28;20442;-81
2021/12/13 12:33:58;;;;;;;16.20;11.43;;;;;;;;;;5074179;28;20190;-80
2021/12/13 12:36:37;;;;;;;12.67;11.37;;;;;;;;;;5064473;28;20466;-81
2021/12/13 12:39:23;;;;;;;16.70;12.53;;;;;;;;;;5076010;28;20429;-81
2021/12/13 12:42:01;;;;;;;13.20;11.60;;;;;;;;;;5068079;28;20445;-81
2021/12/13 12:44:31;;;;;;;13.83;11.87;;;;;;;;;;5075838;28;20444;-79
2021/12/13 12:47:00;;;;;;;14.43;12.33;;;;;;;;;;5062874;28;20422;-81
2021/12/13 12:49:28;;;;;;;15.90;12.80;;;;;;;;;;5053595;28;20421;-83
2021/12/13 12:52:02;;;;;;;16.33;12.37;;;;;;;;;;5047419;28;20932;-82
2021/12/13 12:54:29;;;;;;;15.70;13.07;;;;;;;;;;5056997;28;20441;-81
2021/12/13 12:56:58;;;;;;;13.93;12.50;;;;;;;;;;5052676;28;20488;-81
2021/12/13 12:59:27;;;;;;;17.88;12.63;;;;;;;;;;5049121;28;20452;-81
2021/12/13 13:01:59;;;;;;;14.90;13.40;;;;;;;;;;5038354;28;20203;-82
2021/12/13 13:04:29;;;;;;;20.27;16.40;;;;;;;;;;5057372;28;20472;-82
2021/12/13 13:07:01;;;;;;;86.40;56.17;;;;;;;;;;5059619;28;20441;-83
2021/12/13 13:09:36;;;;;;;14.63;11.63;;;;;;;;;;5058967;28;20800;-82
2021/12/13 13:12:03;;;;;;;15.63;11.90;;;;;;;;;;5057999;28;20877;-82
2021/12/13 13:14:32;;;;;;;14.27;12.73;;;;;;;;;;5057891;28;20472;-82
2021/12/13 13:17:00;;;;;;;15.07;12.83;;;;;;;;;;5058232;28;20473;-83
2021/12/13 13:19:31;;;;;;;15.03;13.37;;;;;;;;;;5059248;28;20809;-82
2021/12/13 13:22:00;;;;;;;14.93;13.43;;;;;;;;;;5043420;28;20831;-82
2021/12/13 13:24:27;;;;;;;14.63;13.02;;;;;;;;;;5055339;28;20472;-81
2021/12/13 13:26:54;;;;;;;14.57;13.07;;;;;;;;;;5062238;28;20199;-83
2021/12/13 13:29:21;;;;;;;13.80;11.90;;;;;;;;;;5060154;28;20202;-82
2021/12/13 13:31:51;;;;;;;15.03;12.10;;;;;;;;;;5059618;28;20430;-82
2021/12/13 13:34:19;;;;;;;13.63;12.27;;;;;;;;;;5058798;28;20458;-81
2021/12/13 13:36:49;;;;;;;14.93;11.60;;;;;;;;;;5059510;28;20560;-82
2021/12/13 13:39:18;;;;;;;16.70;12.10;;;;;;;;;;5059096;28;20438;-83
2021/12/13 13:41:47;;;;;;;12.05;10.88;;;;;;;;;;5059036;28;20444;-82
2021/12/13 13:44:21;;;;;;;11.17;10.10;;;;;;;;;;5067653;28;20207;-81
2021/12/13 13:46:48;;;;;;;10.23;9.10;;;;;;;;;;5076223;28;20485;-81
2021/12/13 13:49:19;;;;;;;12.80;10.47;;;;;;;;;;5075982;28;20428;-82
2021/12/13 13:51:48;;;;;;;9.80;8.80;;;;;;;;;;5076565;28;20451;-82
2021/12/13 13:54:15;;;;;;;10.20;9.20;;;;;;;;;;5075307;28;20452;-81
2021/12/13 13:56:45;;;;;;;10.75;9.65;;;;;;;;;;5073752;28;20459;-81
2021/12/13 13:59:14;;;;;;;13.63;9.23;;;;;;;;;;5077940;28;20186;-82
2021/12/13 14:01:44;;;;;;;9.85;8.85;;;;;;;;;;5075361;28;20441;-81
2021/12/13 14:04:18;;;;;;;10.37;9.37;;;;;;;;;;5056185;28;20229;-81
2021/12/13 14:06:47;;;;;;;10.40;9.40;;;;;;;;;;5059082;28;20425;-82
2021/12/13 14:09:17;;;;;;;11.17;9.00;;;;;;;;;;5060158;28;20447;-81
2021/12/13 14:11:45;;;;;;;8.40;7.60;;;;;;;;;;5059550;28;20453;-82
2021/12/13 14:14:13;;;;;;;9.77;8.88;;;;;;;;;;5059389;28;20469;-82
2021/12/13 14:16:44;;;;;;;11.30;10.20;;;;;;;;;;5059265;28;20188;-81
2021/12/13 14:19:13;;;;;;;10.23;9.03;;;;;;;;;;5058210;28;20440;-83
2021/12/13 14:21:44;;;;;;;9.53;8.40;;;;;;;;;;5053512;28;20477;-82
2021/12/13 14:24:11;;;;;;;10.70;9.60;;;;;;;;;;5041407;28;20478;-82
2021/12/13 14:26:39;;;;;;;9.43;8.20;;;;;;;;;;5041500;28;20449;-83
2021/12/13 14:29:10;;;;;;;10.00;9.20;;;;;;;;;;5041634;28;20453;-82
2021/12/13 14:31:41;;;;;;;10.25;9.10;;;;;;;;;;5040885;28;20914;-81
2021/12/13 14:34:09;;;;;;;11.07;9.53;;;;;;;;;;5038290;28;20290;-83
2021/12/13 14:36:37;;;;;;;12.13;8.47;;;;;;;;;;5039525;28;20453;-82
2021/12/13 14:39:09;;;;;;;10.20;9.30;;;;;;;;;;5041188;28;20481;-82
2021/12/13 14:41:37;;;;;;;9.47;8.47;;;;;;;;;;5042093;28;20419;-83
2021/12/13 14:44:09;;;;;;;9.05;8.18;;;;;;;;;;5041485;28;20454;-82
2021/12/13 14:46:41;;;;;;;12.43;9.00;;;;;;;;;;5041561;28;20238;-82
2021/12/13 14:49:09;;;;;;;10.47;9.37;;;;;;;;;;5039781;28;20206;-84
2021/12/13 14:51:38;;;;;;;10.10;8.50;;;;;;;;;;5038418;28;20442;-82
2021/12/13 14:54:05;;;;;;;10.20;9.30;;;;;;;;;;5038737;28;20441;-82
2021/12/13 14:56:32;;;;;;;9.48;8.57;;;;;;;;;;5041969;28;20462;-81
2021/12/13 14:59:02;;;;;;;10.07;9.07;;;;;;;;;;5037209;28;20233;-82
2021/12/13 15:01:32;;;;;;;9.10;8.20;;;;;;;;;;5042458;28;20203;-83